Darstellungsparameter: Aktuell verwendete Einstellungen:
Skalierung der Graphiken ... ?
xyx+y,   Skalierungsfaktor:      Skalierung: Modus: x, Faktor: 1
Darstellungszeitraum ... ?
Vom - - bis: - -   Zeitraum: 23.02.2006 - 23.02.2006
Min/Max/Avg-Anzeige ... ?
Zeige MMA aktuell
Zeige MMA Monat
Zeige MMA alles
Zeige --A aktuell
Zeige --A Monat
Zeige --A alles
Keine MMA-Anzeige
MMA:
Minimum Maximum Average (ber die Originaldaten)
MMA-Basis: 23.02.2003 - 30.09.2000
Quicknavigation für Darstellung... ?
Tage:      1T, 2T, 3T, 5T -1T -2T -3T -5T +1T +2T +3T +5T
Wochen: 1W, 2W, 3W -1W -2W -3W +1W +2W +3W
Monate: 1M, 3M, 6M -1M -3M -6M +1M +3M +6M
Jahre:    1J, 3J, 5J, 10J -1J -3J -5J -10J +1J +3J +5J +10J
Nutze für die Darstellung ... ?
Originaldaten oder Mittelwerte auf ...
Stundenbasis Tagesbasis Wochenbasis
Monatsbasis Jahresbasis      Datenbasis: Original-Daten
Darstellen als:
Statistik (Auto) Statistik J:M      Darstellung:
Zur Graphik,    zurück zur Übersicht aller Sensoren.
 
Tabellarische Datenbersicht: ?
 
Sensor: Nr:Datum:Temp:Abs-Feuchte:Windchill:Wind:
Aussen-T/F 1 23-02-2006 00:07:49 1.2 C 3.05 g/m*3 1.2 C 0 km/h
2 23-02-2006 00:17:49 1.2 C 3.1 g/m*3 1.2 C 0 km/h
3 23-02-2006 00:27:49 1.2 C 3.1 g/m*3 1.2 C 0 km/h
4 23-02-2006 00:37:50 1.1 C 3.08 g/m*3 1.1 C 0 km/h
5 23-02-2006 00:47:49 1.1 C 3.08 g/m*3 1.1 C 0 km/h
6 23-02-2006 00:57:49 1.2 C 3.16 g/m*3 1.2 C 0 km/h
7 23-02-2006 01:07:50 1.2 C 3.16 g/m*3 1.2 C 0 km/h
8 23-02-2006 01:17:50 1.1 C 3.08 g/m*3 1.1 C 0 km/h
9 23-02-2006 01:27:50 1.1 C 3.08 g/m*3 1.1 C 0 km/h
10 23-02-2006 01:37:50 1.1 C 3.03 g/m*3 1.1 C 0 km/h
11 23-02-2006 01:47:49 1 C 3.01 g/m*3 1 C 0 km/h
12 23-02-2006 01:57:49 1 C 2.96 g/m*3 1 C 0 km/h
13 23-02-2006 02:07:49 1 C 3.01 g/m*3 1 C 0 km/h
14 23-02-2006 02:17:49 1 C 2.96 g/m*3 1 C 0 km/h
15 23-02-2006 02:27:49 1 C 2.96 g/m*3 1 C 0 km/h
16 23-02-2006 02:37:49 0.9 C 2.99 g/m*3 0.9 C 0 km/h
17 23-02-2006 02:48:51 0.9 C 2.99 g/m*3 0.9 C 0 km/h
18 23-02-2006 02:58:51 0.9 C 2.99 g/m*3 0.9 C 0 km/h
19 23-02-2006 03:08:52 0.9 C 2.99 g/m*3 0.9 C 0 km/h
20 23-02-2006 03:18:51 0.8 C 2.97 g/m*3 0.8 C 0 km/h
21 23-02-2006 03:28:51 0.8 C 2.92 g/m*3 0.8 C 0 km/h
22 23-02-2006 03:38:51 0.7 C 2.9 g/m*3 0.7 C 0 km/h
23 23-02-2006 03:48:51 0.7 C 2.9 g/m*3 0.7 C 0 km/h
24 23-02-2006 03:58:51 0.7 C 2.9 g/m*3 0.7 C 0 km/h
25 23-02-2006 04:08:51 0.7 C 2.9 g/m*3 0.7 C 0 km/h
Sensor: Nr:Datum:Temp:Abs-Feuchte:Windchill:Wind:
Aussen-T/F 26 23-02-2006 04:18:51 0.7 C 2.9 g/m*3 0.7 C 0 km/h
27 23-02-2006 04:28:51 0.7 C 2.9 g/m*3 0.7 C 0 km/h
28 23-02-2006 04:38:52 0.6 C 2.88 g/m*3 0.6 C 0 km/h
29 23-02-2006 04:48:51 0.6 C 2.88 g/m*3 0.6 C 0 km/h
30 23-02-2006 04:58:51 0.6 C 2.88 g/m*3 0.6 C 0 km/h
31 23-02-2006 05:08:52 0.5 C 2.81 g/m*3 0.5 C 0 km/h
32 23-02-2006 05:18:51 0.5 C 2.81 g/m*3 0.5 C 0 km/h
33 23-02-2006 05:28:51 0.4 C 2.79 g/m*3 0.4 C 0 km/h
34 23-02-2006 05:38:51 0.4 C 2.74 g/m*3 0.4 C 0 km/h
35 23-02-2006 05:48:51 0.3 C 2.72 g/m*3 0.3 C 0 km/h
36 23-02-2006 05:58:51 0.2 C 2.7 g/m*3 0.2 C 0 km/h
37 23-02-2006 06:08:52 0.2 C 2.7 g/m*3 0.2 C 0 km/h
38 23-02-2006 06:18:51 0.1 C 2.68 g/m*3 0.1 C 0 km/h
39 23-02-2006 06:28:51 0.1 C 2.68 g/m*3 0.1 C 0 km/h
40 23-02-2006 06:38:51 0.1 C 2.68 g/m*3 0.1 C 0 km/h
41 23-02-2006 06:48:51 0.1 C 2.73 g/m*3 0.1 C 0 km/h
42 23-02-2006 06:58:51 0.1 C 2.73 g/m*3 0.1 C 0 km/h
43 23-02-2006 07:08:51 0 C 2.71 g/m*3 0 C 0 km/h
44 23-02-2006 07:18:51 0 C 2.76 g/m*3 0 C 0 km/h
45 23-02-2006 07:28:52 0 C 2.76 g/m*3 0 C 0 km/h
46 23-02-2006 07:38:51 0 C 2.76 g/m*3 0 C 0 km/h
47 23-02-2006 07:48:51 0 C 2.81 g/m*3 0 C 0 km/h
48 23-02-2006 07:58:51 0 C 2.81 g/m*3 0 C 0 km/h
49 23-02-2006 08:08:51 0.1 C 2.83 g/m*3 0.1 C 0 km/h
50 23-02-2006 08:18:51 0.1 C 2.78 g/m*3 0.1 C 0 km/h
Sensor: Nr:Datum:Temp:Abs-Feuchte:Windchill:Wind:
Aussen-T/F 51 23-02-2006 08:28:51 0.1 C 2.78 g/m*3 0.1 C 0 km/h
52 23-02-2006 08:38:52 0.1 C 2.73 g/m*3 0.1 C 0 km/h
53 23-02-2006 08:48:51 0.1 C 2.73 g/m*3 0.1 C 0 km/h
54 23-02-2006 08:58:51 0.1 C 2.73 g/m*3 0.1 C 0 km/h
55 23-02-2006 09:08:52 0.2 C 2.75 g/m*3 0.2 C 0 km/h
56 23-02-2006 09:18:52 0.1 C 2.73 g/m*3 0.1 C 0 km/h
57 23-02-2006 09:28:52 0.2 C 2.75 g/m*3 0.2 C 0 km/h
58 23-02-2006 09:38:51 0.4 C 2.79 g/m*3 0.4 C 0 km/h
59 23-02-2006 09:48:52 0.6 C 2.83 g/m*3 0.6 C 0 km/h
60 23-02-2006 09:58:52 0.8 C 2.87 g/m*3 0.8 C 0 km/h
61 23-02-2006 10:08:51 1 C 2.8 g/m*3 1 C 0 km/h
62 23-02-2006 10:18:51 1.1 C 2.82 g/m*3 1.1 C 0 km/h
63 23-02-2006 10:28:51 1.1 C 2.77 g/m*3 1.1 C 0 km/h
64 23-02-2006 10:38:52 1.1 C 2.77 g/m*3 1.1 C 0 km/h
65 23-02-2006 10:48:51 1.2 C 2.79 g/m*3 1.2 C 0 km/h
66 23-02-2006 10:58:51 1.3 C 2.81 g/m*3 1.3 C 0 km/h
67 23-02-2006 11:08:52 1.4 C 2.88 g/m*3 1.4 C 0 km/h
68 23-02-2006 11:18:52 1.5 C 2.85 g/m*3 1.5 C 0 km/h
69 23-02-2006 11:28:52 1.7 C 2.83 g/m*3 1.7 C 0 km/h
70 23-02-2006 11:38:52 1.9 C 2.87 g/m*3 1.9 C 0 km/h
71 23-02-2006 11:48:52 1.8 C 2.8 g/m*3 1.8 C 0 km/h
72 23-02-2006 11:58:52 2 C 2.78 g/m*3 2 C 0 km/h
73 23-02-2006 12:08:52 2.6 C 2.84 g/m*3 2.6 C 0 km/h
74 23-02-2006 12:18:51 2.9 C 2.78 g/m*3 2.9 C 0 km/h
75 23-02-2006 12:28:51 3.2 C 2.71 g/m*3 3.2 C 0 km/h
Sensor: Nr:Datum:Temp:Abs-Feuchte:Windchill:Wind:
Aussen-T/F 76 23-02-2006 12:38:52 3.5 C 2.58 g/m*3 3.5 C 0 km/h
77 23-02-2006 12:48:51 3.6 C 2.6 g/m*3 3.6 C 0 km/h
78 23-02-2006 12:58:51 3.7 C 2.62 g/m*3 3.7 C 0 km/h
79 23-02-2006 13:08:52 3.8 C 2.63 g/m*3 3.8 C 0 km/h
80 23-02-2006 13:18:52 4 C 2.54 g/m*3 4 C 0 km/h
81 23-02-2006 13:28:52 3.8 C 2.57 g/m*3 3.8 C 0 km/h
82 23-02-2006 13:38:52 3.7 C 2.55 g/m*3 3.7 C 0 km/h
83 23-02-2006 13:48:52 3.5 C 2.46 g/m*3 3.5 C 0 km/h
84 23-02-2006 13:58:52 3.4 C 2.5 g/m*3 3.4 C 0 km/h
85 23-02-2006 14:08:52 3.5 C 2.58 g/m*3 3.5 C 0 km/h
86 23-02-2006 14:18:52 3.4 C 2.5 g/m*3 3.4 C 0 km/h
87 23-02-2006 14:28:52 3.4 C 2.44 g/m*3 3.4 C 0 km/h
88 23-02-2006 14:38:53 3.5 C 2.52 g/m*3 3.5 C 0 km/h
89 23-02-2006 14:48:52 3.6 C 2.48 g/m*3 3.6 C 0 km/h
90 23-02-2006 14:58:52 3.7 C 2.49 g/m*3 3.7 C 0 km/h
91 23-02-2006 15:08:53 3.6 C 2.48 g/m*3 3.6 C 0 km/h
92 23-02-2006 15:18:52 3.4 C 2.44 g/m*3 3.4 C 0 km/h
93 23-02-2006 15:28:52 3.2 C 2.47 g/m*3 3.2 C 0 km/h
94 23-02-2006 15:38:52 3.2 C 2.47 g/m*3 3.2 C 0 km/h
95 23-02-2006 15:48:52 3 C 2.44 g/m*3 3 C 0 km/h
96 23-02-2006 15:58:52 3 C 2.5 g/m*3 3 C 0 km/h
97 23-02-2006 16:08:52 2.8 C 2.46 g/m*3 2.8 C 0 km/h
98 23-02-2006 16:18:52 2.7 C 2.51 g/m*3 2.7 C 0 km/h
99 23-02-2006 16:28:52 2.5 C 2.41 g/m*3 2.5 C 0 km/h
100 23-02-2006 16:38:52 2.4 C 2.46 g/m*3 2.4 C 0 km/h
Sensor: Nr:Datum:Temp:Abs-Feuchte:Windchill:Wind:
Aussen-T/F 101 23-02-2006 16:48:52 2.3 C 2.44 g/m*3 2.3 C 0 km/h
102 23-02-2006 16:58:52 2.3 C 2.5 g/m*3 2.3 C 0 km/h
103 23-02-2006 17:08:53 2.3 C 2.5 g/m*3 2.3 C 0 km/h
104 23-02-2006 17:18:53 2.2 C 2.48 g/m*3 2.2 C 0 km/h
105 23-02-2006 17:28:53 2.2 C 2.53 g/m*3 2.2 C 0 km/h
106 23-02-2006 17:38:54 2.2 C 2.53 g/m*3 2.2 C 0 km/h
107 23-02-2006 17:48:52 2 C 2.5 g/m*3 2 C 0 km/h
108 23-02-2006 17:58:52 1.9 C 2.59 g/m*3 1.9 C 0 km/h
109 23-02-2006 18:08:52 1.8 C 2.58 g/m*3 1.8 C 0 km/h
110 23-02-2006 18:18:53 1.7 C 2.56 g/m*3 1.7 C 0 km/h
111 23-02-2006 18:28:53 1.6 C 2.54 g/m*3 1.6 C 0 km/h
112 23-02-2006 18:38:53 1.5 C 2.52 g/m*3 1.5 C 0 km/h
113 23-02-2006 18:48:53 1.5 C 2.58 g/m*3 1.5 C 0 km/h
114 23-02-2006 18:58:53 1.4 C 2.56 g/m*3 1.4 C 0 km/h
115 23-02-2006 19:08:53 1.3 C 2.6 g/m*3 1.3 C 0 km/h
116 23-02-2006 19:18:52 1.3 C 2.6 g/m*3 1.3 C 0 km/h
117 23-02-2006 19:28:52 1.3 C 2.54 g/m*3 1.3 C 0 km/h
118 23-02-2006 19:38:52 1.3 C 2.49 g/m*3 1.3 C 0 km/h
119 23-02-2006 19:48:53 1.3 C 2.54 g/m*3 1.3 C 0 km/h
120 23-02-2006 19:58:53 1.2 C 2.58 g/m*3 1.2 C 0 km/h
121 23-02-2006 20:08:52 1.2 C 2.58 g/m*3 1.2 C 0 km/h
122 23-02-2006 20:18:52 1.2 C 2.58 g/m*3 1.2 C 0 km/h
123 23-02-2006 20:28:52 1.1 C 2.51 g/m*3 1.1 C 0 km/h
124 23-02-2006 20:38:54 1.1 C 2.51 g/m*3 1.1 C 0 km/h
125 23-02-2006 20:48:53 1 C 2.44 g/m*3 1 C 0 km/h
Sensor: Nr:Datum:Temp:Abs-Feuchte:Windchill:Wind:
Aussen-T/F 126 23-02-2006 20:58:53 1 C 2.44 g/m*3 1 C 0 km/h
127 23-02-2006 21:08:53 1 C 2.44 g/m*3 1 C 0 km/h
128 23-02-2006 21:18:53 0.9 C 2.47 g/m*3 0.9 C 0 km/h
129 23-02-2006 21:28:53 0.9 C 2.47 g/m*3 0.9 C 0 km/h
130 23-02-2006 21:38:53 0.8 C 2.46 g/m*3 0.8 C 0 km/h
131 23-02-2006 21:48:53 0.8 C 2.51 g/m*3 0.8 C 0 km/h
132 23-02-2006 21:58:53 0.8 C 2.56 g/m*3 0.8 C 0 km/h
133 23-02-2006 22:08:53 0.7 C 2.54 g/m*3 0.7 C 0 km/h
134 23-02-2006 22:18:53 0.7 C 2.54 g/m*3 0.7 C 0 km/h
135 23-02-2006 22:28:53 0.7 C 2.59 g/m*3 0.7 C 0 km/h
136 23-02-2006 22:38:53 0.7 C 2.64 g/m*3 0.7 C 0 km/h
137 23-02-2006 22:48:53 0.6 C 2.63 g/m*3 0.6 C 0 km/h
138 23-02-2006 22:58:53 0.6 C 2.63 g/m*3 0.6 C 0 km/h
139 23-02-2006 23:08:53 0.6 C 2.68 g/m*3 0.6 C 0 km/h
140 23-02-2006 23:18:53 0.6 C 2.73 g/m*3 0.6 C 0 km/h
141 23-02-2006 23:28:53 0.5 C 2.66 g/m*3 0.5 C 0 km/h
142 23-02-2006 23:38:53 0.5 C 2.66 g/m*3 0.5 C 0 km/h
143 23-02-2006 23:48:53 0.5 C 2.61 g/m*3 0.5 C 0 km/h
144 23-02-2006 23:58:53 0.5 C 2.66 g/m*3 0.5 C 0 km/h

Legende:
   Min
   Max


Maximal/Minimal-Werte vom 23.02.2003 - 30.09.2000

Sensor Min Max Avg
Temp
(Aussen-T/F)
°C
-- 
°C 0 °C

Die Daten stammen von einer Davis Vantage Pro 2 Wetter-Station und werden unter Linux mit der Software wview2wettercgi und aufbereitet. Alle Angaben erfolgen ohne Gewähr für ihre Vollständigkeit oder Richtigkeit.
Kontakt: Rainer Krienke krienke@uni-koblenz.de . Meine Webseiten an der Uni Koblenz oder privat.
Version: $Revision: 0.78 $